Disclaimer

Please do not use the information listed here in-flight or in-navigation, as they are not provided to us by the airports but are provided by volunteers, so they might be outdated.

Search


Regions


Airport information page

Radio informations:
Brisbane Center - 127.1 MHz
CTAF/UNICOM - 126.7 MHz

Airport informations:
Latitude: 29° 29' 56.00" S
Longitude: 149° 50' 41.00" E
Elevation: 701 feet - 214 meters
Operating hours: N/A
Operating agency: Civil government, landing fees and diplomatic clearance may be required
Timezone: UTC+10(+11DT)
Fuel: Jet A1, without icing nhibitor.

100/130 MIL Spec, low lead, aviation gasoline (BLUE)

Runway information:
01/19 - 5292 x 98 feet< - >1613 x 30 meters
05/23 - 3205 x 60 feet< - >977 x 18 meters

Recent METARs:
YMOR 181500Z AUTO 02015KT 9999 // NCD 28/17 Q1010
YMOR 181600Z AUTO 03015KT 9999 // NCD 27/18 Q1010
YMOR 181600Z AUTO 03015KT 9999 // NCD 27/18 Q1010

Airport on the map: